Crocus, North Dakota
Current Conditions -  °F | °C
As of 2:55 PM on Tuesday 21 Oct 2014 (Local Time) from K06D Reporting Station
Clear Clear  
Wind Chill: 18°   Ceiling: Unl
Heat Index: 18°   Visibility: 10mi
Dew Point:   Wind: 20mph
Humidity: 40%   Direction: 160°SSE
Pressure: 29.76"   Gusts: 25mph
Location:  48.8584°N, 99.1311°W
Report Text: K06D 211955Z AUTO 16017G22KT 10SM CLR 18/04 A2976 RMK AO2
Loading
Personal Weather Stations






























Interactive Weather Map
Tropical Storm Tracking
New forecast layout! Learn more

10-Day Weather Forecast

Advertisements
Track Severe Weather on mobile